Terminal Aerodrome Forecast
Issued by NWS

Home | Current Version | Previous Version | Text Only | Print | Product List | Glossary On
Versions: 1 2 3 4 5 6 7 8 9 10 11 12 13 14 15
093
FTUS46 KPDT 072320
TAFYKM
TAF
KYKM 072320Z 0800/0824 VRB02KT P6SM SCT200
     FM081200 VRB03KT 5SM BR FEW015 BKN200
      TEMPO 0812/0814 3SM BR BKN015
     FM081500 VRB03KT 6SM BR SCT015 SCT100
     FM081800 29006KT P6SM SCT200=

USA.gov is the U.S. government's official web portal to all federal, state and local government web resources and services.